Terminal Aerodrome Forecast
Issued by NWS Twin Cities, MN

Home | Current Version | Previous Version | Graphics & Text | Print | Product List | Glossary On
Versions: 1 2 3 4 5 6 7 8 9 10 11 12 13 14 15 16 17 18 19 20 21 22 23 24 25 26 27 28 29 30
000
FTUS43 KMPX 242300 RRA
TAFMSP
TAF
KMSP 242341Z 2500/2606 31016G25KT P6SM OVC025
     FM250600 30013KT P6SM SCT025
     FM251200 27005KT P6SM FEW050 SCT100
     FM252000 21004KT P6SM BKN040
     FM260000 14004KT P6SM BKN030=

USA.gov is the U.S. government's official web portal to all federal, state and local government web resources and services.